sensor_id;sensor_type;location;lat;lon;timestamp;P1;durP1;ratioP1;P2;durP2;ratioP2
11121;SDS011;5615;49.304;10.576;2022-09-21T00:01:08;27.80;;;11.53;;
11121;SDS011;5615;49.304;10.576;2022-09-21T00:03:37;37.83;;;11.77;;
11121;SDS011;5615;49.304;10.576;2022-09-21T00:06:06;22.13;;;10.27;;
11121;SDS011;5615;49.304;10.576;2022-09-21T00:08:35;46.13;;;12.17;;
11121;SDS011;5615;49.304;10.576;2022-09-21T00:11:02;37.30;;;12.00;;
11121;SDS011;5615;49.304;10.576;2022-09-21T00:13:30;28.70;;;11.97;;
11121;SDS011;5615;49.304;10.576;2022-09-21T00:15:58;55.67;;;13.57;;
11121;SDS011;5615;49.304;10.576;2022-09-21T00:18:25;21.07;;;10.57;;
11121;SDS011;5615;49.304;10.576;2022-09-21T00:20:52;39.13;;;12.43;;
11121;SDS011;5615;49.304;10.576;2022-09-21T00:23:18;27.97;;;10.93;;
11121;SDS011;5615;49.304;10.576;2022-09-21T00:25:45;42.00;;;11.87;;
11121;SDS011;5615;49.304;10.576;2022-09-21T00:28:12;35.07;;;11.20;;
11121;SDS011;5615;49.304;10.576;2022-09-21T00:30:38;21.67;;;9.83;;
11121;SDS011;5615;49.304;10.576;2022-09-21T00:33:06;19.77;;;9.40;;
11121;SDS011;5615;49.304;10.576;2022-09-21T00:35:33;19.90;;;10.83;;
11121;SDS011;5615;49.304;10.576;2022-09-21T00:38:00;21.63;;;10.40;;
11121;SDS011;5615;49.304;10.576;2022-09-21T00:40:27;20.27;;;9.93;;
11121;SDS011;5615;49.304;10.576;2022-09-21T00:43:08;23.33;;;9.73;;
11121;SDS011;5615;49.304;10.576;2022-09-21T00:45:36;18.10;;;9.40;;
11121;SDS011;5615;49.304;10.576;2022-09-21T00:48:03;29.93;;;9.60;;
11121;SDS011;5615;49.304;10.576;2022-09-21T00:50:31;56.93;;;9.53;;
11121;SDS011;5615;49.304;10.576;2022-09-21T00:52:59;48.73;;;10.40;;
11121;SDS011;5615;49.304;10.576;2022-09-21T00:55:29;61.23;;;10.07;;
11121;SDS011;5615;49.304;10.576;2022-09-21T00:58:02;38.07;;;10.70;;
11121;SDS011;5615;49.304;10.576;2022-09-21T01:00:33;46.30;;;11.13;;
11121;SDS011;5615;49.304;10.576;2022-09-21T01:03:00;63.00;;;11.47;;
11121;SDS011;5615;49.304;10.576;2022-09-21T01:05:27;45.50;;;10.33;;
11121;SDS011;5615;49.304;10.576;2022-09-21T01:07:55;74.07;;;11.17;;
11121;SDS011;5615;49.304;10.576;2022-09-21T01:10:24;70.67;;;11.20;;
11121;SDS011;5615;49.304;10.576;2022-09-21T01:12:55;55.33;;;11.07;;
11121;SDS011;5615;49.304;10.576;2022-09-21T01:15:34;59.77;;;10.40;;
11121;SDS011;5615;49.304;10.576;2022-09-21T01:18:08;74.40;;;11.20;;
11121;SDS011;5615;49.304;10.576;2022-09-21T01:20:42;69.47;;;10.57;;
11121;SDS011;5615;49.304;10.576;2022-09-21T01:23:47;42.87;;;10.27;;
11121;SDS011;5615;49.304;10.576;2022-09-21T01:26:25;19.90;;;8.93;;
11121;SDS011;5615;49.304;10.576;2022-09-21T01:29:18;38.40;;;9.67;;
11121;SDS011;5615;49.304;10.576;2022-09-21T01:31:49;19.93;;;8.40;;
11121;SDS011;5615;49.304;10.576;2022-09-21T01:34:21;26.33;;;9.10;;
11121;SDS011;5615;49.304;10.576;2022-09-21T01:36:52;44.37;;;9.20;;
11121;SDS011;5615;49.304;10.576;2022-09-21T01:39:21;35.80;;;9.30;;
11121;SDS011;5615;49.304;10.576;2022-09-21T01:41:50;29.80;;;9.37;;
11121;SDS011;5615;49.304;10.576;2022-09-21T01:44:20;21.20;;;7.63;;
11121;SDS011;5615;49.304;10.576;2022-09-21T01:46:49;54.70;;;9.87;;
11121;SDS011;5615;49.304;10.576;2022-09-21T01:49:19;31.00;;;8.30;;
11121;SDS011;5615;49.304;10.576;2022-09-21T01:51:54;49.60;;;9.03;;
11121;SDS011;5615;49.304;10.576;2022-09-21T01:54:29;54.70;;;9.43;;
11121;SDS011;5615;49.304;10.576;2022-09-21T01:57:01;63.87;;;9.93;;
11121;SDS011;5615;49.304;10.576;2022-09-21T01:59:36;44.20;;;8.87;;
11121;SDS011;5615;49.304;10.576;2022-09-21T02:02:08;74.87;;;9.90;;
11121;SDS011;5615;49.304;10.576;2022-09-21T02:04:39;53.03;;;9.57;;
11121;SDS011;5615;49.304;10.576;2022-09-21T02:07:06;35.10;;;8.30;;
11121;SDS011;5615;49.304;10.576;2022-09-21T02:09:34;65.53;;;9.00;;
11121;SDS011;5615;49.304;10.576;2022-09-21T02:12:01;24.17;;;7.93;;
11121;SDS011;5615;49.304;10.576;2022-09-21T02:14:28;49.30;;;8.37;;
11121;SDS011;5615;49.304;10.576;2022-09-21T02:17:01;27.40;;;8.60;;
11121;SDS011;5615;49.304;10.576;2022-09-21T02:19:35;70.07;;;10.30;;
11121;SDS011;5615;49.304;10.576;2022-09-21T02:22:10;33.90;;;8.77;;
11121;SDS011;5615;49.304;10.576;2022-09-21T02:24:41;38.33;;;9.20;;
11121;SDS011;5615;49.304;10.576;2022-09-21T02:27:13;51.23;;;9.27;;
11121;SDS011;5615;49.304;10.576;2022-09-21T02:29:50;43.33;;;8.40;;
11121;SDS011;5615;49.304;10.576;2022-09-21T02:32:23;13.77;;;8.03;;
11121;SDS011;5615;49.304;10.576;2022-09-21T02:35:00;23.90;;;8.93;;
11121;SDS011;5615;49.304;10.576;2022-09-21T02:37:31;28.47;;;8.40;;
11121;SDS011;5615;49.304;10.576;2022-09-21T02:40:06;22.40;;;8.73;;
11121;SDS011;5615;49.304;10.576;2022-09-21T02:42:41;36.13;;;8.67;;
11121;SDS011;5615;49.304;10.576;2022-09-21T02:45:12;29.43;;;8.57;;
11121;SDS011;5615;49.304;10.576;2022-09-21T02:47:45;29.83;;;7.77;;
11121;SDS011;5615;49.304;10.576;2022-09-21T02:50:15;30.00;;;8.13;;
11121;SDS011;5615;49.304;10.576;2022-09-21T02:52:46;21.37;;;8.70;;
11121;SDS011;5615;49.304;10.576;2022-09-21T02:55:12;23.27;;;7.70;;
11121;SDS011;5615;49.304;10.576;2022-09-21T02:57:41;20.10;;;7.77;;
11121;SDS011;5615;49.304;10.576;2022-09-21T03:00:10;33.47;;;7.83;;
11121;SDS011;5615;49.304;10.576;2022-09-21T03:02:37;33.50;;;8.97;;
11121;SDS011;5615;49.304;10.576;2022-09-21T03:05:07;28.03;;;8.07;;
11121;SDS011;5615;49.304;10.576;2022-09-21T03:07:35;36.20;;;8.30;;
11121;SDS011;5615;49.304;10.576;2022-09-21T03:10:02;28.10;;;8.03;;
11121;SDS011;5615;49.304;10.576;2022-09-21T03:12:30;29.93;;;7.77;;
11121;SDS011;5615;49.304;10.576;2022-09-21T03:14:57;34.37;;;8.23;;
11121;SDS011;5615;49.304;10.576;2022-09-21T03:17:24;38.40;;;8.77;;
11121;SDS011;5615;49.304;10.576;2022-09-21T03:19:51;15.30;;;7.73;;
11121;SDS011;5615;49.304;10.576;2022-09-21T03:22:20;44.63;;;9.40;;
11121;SDS011;5615;49.304;10.576;2022-09-21T03:24:48;31.47;;;8.37;;
11121;SDS011;5615;49.304;10.576;2022-09-21T03:27:16;22.00;;;7.40;;
11121;SDS011;5615;49.304;10.576;2022-09-21T03:29:44;16.80;;;7.27;;
11121;SDS011;5615;49.304;10.576;2022-09-21T03:32:11;44.70;;;9.37;;
11121;SDS011;5615;49.304;10.576;2022-09-21T03:34:38;15.77;;;7.23;;
11121;SDS011;5615;49.304;10.576;2022-09-21T03:37:06;32.50;;;8.60;;
11121;SDS011;5615;49.304;10.576;2022-09-21T03:39:35;23.73;;;8.33;;
11121;SDS011;5615;49.304;10.576;2022-09-21T03:42:02;30.43;;;7.57;;
11121;SDS011;5615;49.304;10.576;2022-09-21T03:44:29;32.67;;;8.13;;
11121;SDS011;5615;49.304;10.576;2022-09-21T03:46:56;81.33;;;10.10;;
11121;SDS011;5615;49.304;10.576;2022-09-21T03:49:23;40.40;;;8.23;;
11121;SDS011;5615;49.304;10.576;2022-09-21T03:51:50;37.03;;;8.87;;
11121;SDS011;5615;49.304;10.576;2022-09-21T03:54:16;23.20;;;8.17;;
11121;SDS011;5615;49.304;10.576;2022-09-21T03:56:44;13.23;;;7.63;;
11121;SDS011;5615;49.304;10.576;2022-09-21T03:59:11;47.43;;;9.17;;
11121;SDS011;5615;49.304;10.576;2022-09-21T04:01:37;59.50;;;8.77;;
11121;SDS011;5615;49.304;10.576;2022-09-21T04:04:04;39.77;;;8.97;;
11121;SDS011;5615;49.304;10.576;2022-09-21T04:06:31;72.90;;;9.60;;
11121;SDS011;5615;49.304;10.576;2022-09-21T04:08:57;21.90;;;8.17;;
11121;SDS011;5615;49.304;10.576;2022-09-21T04:11:26;22.70;;;8.33;;
11121;SDS011;5615;49.304;10.576;2022-09-21T04:13:55;32.60;;;9.10;;
11121;SDS011;5615;49.304;10.576;2022-09-21T04:16:22;22.73;;;8.73;;
11121;SDS011;5615;49.304;10.576;2022-09-21T04:18:49;17.03;;;7.77;;
11121;SDS011;5615;49.304;10.576;2022-09-21T04:21:16;31.00;;;8.83;;
11121;SDS011;5615;49.304;10.576;2022-09-21T04:23:43;17.97;;;8.60;;
11121;SDS011;5615;49.304;10.576;2022-09-21T04:26:20;19.87;;;8.80;;
11121;SDS011;5615;49.304;10.576;2022-09-21T04:28:48;34.83;;;9.13;;
11121;SDS011;5615;49.304;10.576;2022-09-21T04:31:16;27.63;;;8.60;;
11121;SDS011;5615;49.304;10.576;2022-09-21T04:33:43;17.83;;;8.57;;
11121;SDS011;5615;49.304;10.576;2022-09-21T04:36:09;15.37;;;8.53;;
11121;SDS011;5615;49.304;10.576;2022-09-21T04:38:36;29.23;;;8.57;;
11121;SDS011;5615;49.304;10.576;2022-09-21T04:41:04;25.40;;;8.47;;
11121;SDS011;5615;49.304;10.576;2022-09-21T04:43:31;33.93;;;9.10;;
11121;SDS011;5615;49.304;10.576;2022-09-21T04:46:02;12.23;;;8.80;;
11121;SDS011;5615;49.304;10.576;2022-09-21T04:48:31;13.57;;;8.30;;
11121;SDS011;5615;49.304;10.576;2022-09-21T04:50:58;12.47;;;8.70;;
11121;SDS011;5615;49.304;10.576;2022-09-21T04:53:24;44.37;;;9.77;;
11121;SDS011;5615;49.304;10.576;2022-09-21T04:55:51;15.47;;;8.27;;
11121;SDS011;5615;49.304;10.576;2022-09-21T04:58:19;17.07;;;8.37;;
11121;SDS011;5615;49.304;10.576;2022-09-21T05:00:47;14.60;;;8.87;;
11121;SDS011;5615;49.304;10.576;2022-09-21T05:03:15;15.33;;;8.53;;
11121;SDS011;5615;49.304;10.576;2022-09-21T05:05:46;11.97;;;7.97;;
11121;SDS011;5615;49.304;10.576;2022-09-21T05:08:13;16.93;;;8.77;;
11121;SDS011;5615;49.304;10.576;2022-09-21T05:10:40;17.80;;;8.40;;
11121;SDS011;5615;49.304;10.576;2022-09-21T05:13:06;20.97;;;9.77;;
11121;SDS011;5615;49.304;10.576;2022-09-21T05:15:33;14.37;;;9.60;;
11121;SDS011;5615;49.304;10.576;2022-09-21T05:18:01;11.93;;;8.20;;
11121;SDS011;5615;49.304;10.576;2022-09-21T05:20:28;13.97;;;8.57;;
11121;SDS011;5615;49.304;10.576;2022-09-21T05:22:56;14.17;;;9.97;;
11121;SDS011;5615;49.304;10.576;2022-09-21T05:25:25;14.83;;;8.43;;
11121;SDS011;5615;49.304;10.576;2022-09-21T05:27:52;16.20;;;9.47;;
11121;SDS011;5615;49.304;10.576;2022-09-21T05:30:19;14.30;;;9.97;;
11121;SDS011;5615;49.304;10.576;2022-09-21T05:32:47;13.20;;;8.73;;
11121;SDS011;5615;49.304;10.576;2022-09-21T05:35:21;18.73;;;10.33;;
11121;SDS011;5615;49.304;10.576;2022-09-21T05:37:53;15.77;;;10.47;;
11121;SDS011;5615;49.304;10.576;2022-09-21T05:40:26;35.03;;;11.77;;
11121;SDS011;5615;49.304;10.576;2022-09-21T05:42:53;30.73;;;13.03;;
11121;SDS011;5615;49.304;10.576;2022-09-21T05:45:20;19.93;;;12.77;;
11121;SDS011;5615;49.304;10.576;2022-09-21T05:47:59;18.53;;;11.90;;
11121;SDS011;5615;49.304;10.576;2022-09-21T05:56:15;22.03;;;12.43;;
11121;SDS011;5615;49.304;10.576;2022-09-21T05:58:51;18.40;;;11.40;;
11121;SDS011;5615;49.304;10.576;2022-09-21T06:01:27;28.90;;;12.53;;
11121;SDS011;5615;49.304;10.576;2022-09-21T06:04:04;31.67;;;12.70;;
11121;SDS011;5615;49.304;10.576;2022-09-21T06:06:35;28.17;;;12.83;;
11121;SDS011;5615;49.304;10.576;2022-09-21T06:09:03;24.00;;;12.33;;
11121;SDS011;5615;49.304;10.576;2022-09-21T06:11:30;21.10;;;12.67;;
11121;SDS011;5615;49.304;10.576;2022-09-21T06:13:57;20.43;;;12.33;;
11121;SDS011;5615;49.304;10.576;2022-09-21T06:16:25;20.47;;;11.50;;
11121;SDS011;5615;49.304;10.576;2022-09-21T06:18:52;20.13;;;12.03;;
11121;SDS011;5615;49.304;10.576;2022-09-21T06:21:19;19.97;;;12.03;;
11121;SDS011;5615;49.304;10.576;2022-09-21T06:23:45;20.53;;;11.53;;
11121;SDS011;5615;49.304;10.576;2022-09-21T06:26:13;24.63;;;12.07;;
11121;SDS011;5615;49.304;10.576;2022-09-21T06:28:41;19.33;;;11.53;;
11121;SDS011;5615;49.304;10.576;2022-09-21T06:31:08;19.50;;;11.13;;
11121;SDS011;5615;49.304;10.576;2022-09-21T06:33:34;20.83;;;12.93;;
11121;SDS011;5615;49.304;10.576;2022-09-21T06:36:01;16.80;;;11.87;;
11121;SDS011;5615;49.304;10.576;2022-09-21T06:38:29;20.17;;;12.80;;
11121;SDS011;5615;49.304;10.576;2022-09-21T06:40:59;17.50;;;12.60;;
11121;SDS011;5615;49.304;10.576;2022-09-21T06:43:28;20.37;;;12.97;;
11121;SDS011;5615;49.304;10.576;2022-09-21T06:45:55;21.27;;;13.40;;
11121;SDS011;5615;49.304;10.576;2022-09-21T06:48:23;22.10;;;13.60;;
11121;SDS011;5615;49.304;10.576;2022-09-21T06:50:50;23.43;;;13.47;;
11121;SDS011;5615;49.304;10.576;2022-09-21T06:53:22;23.03;;;14.13;;
11121;SDS011;5615;49.304;10.576;2022-09-21T06:55:49;58.53;;;15.47;;
11121;SDS011;5615;49.304;10.576;2022-09-21T06:58:16;56.20;;;15.40;;
11121;SDS011;5615;49.304;10.576;2022-09-21T07:00:44;67.87;;;15.70;;
11121;SDS011;5615;49.304;10.576;2022-09-21T07:03:11;23.67;;;14.13;;
11121;SDS011;5615;49.304;10.576;2022-09-21T07:05:38;37.03;;;13.77;;
11121;SDS011;5615;49.304;10.576;2022-09-21T07:08:05;46.77;;;14.30;;
11121;SDS011;5615;49.304;10.576;2022-09-21T07:10:31;59.17;;;14.33;;
11121;SDS011;5615;49.304;10.576;2022-09-21T07:13:00;58.73;;;15.30;;
11121;SDS011;5615;49.304;10.576;2022-09-21T07:15:28;26.60;;;12.40;;
11121;SDS011;5615;49.304;10.576;2022-09-21T07:17:56;30.07;;;11.97;;
11121;SDS011;5615;49.304;10.576;2022-09-21T07:20:23;39.97;;;13.47;;
11121;SDS011;5615;49.304;10.576;2022-09-21T07:22:50;40.53;;;12.27;;
11121;SDS011;5615;49.304;10.576;2022-09-21T07:25:16;44.57;;;12.33;;
11121;SDS011;5615;49.304;10.576;2022-09-21T07:27:43;53.37;;;11.70;;
11121;SDS011;5615;49.304;10.576;2022-09-21T07:30:11;18.63;;;10.37;;
11121;SDS011;5615;49.304;10.576;2022-09-21T07:32:38;40.30;;;9.27;;
11121;SDS011;5615;49.304;10.576;2022-09-21T07:35:06;25.67;;;8.50;;
11121;SDS011;5615;49.304;10.576;2022-09-21T07:37:33;12.83;;;6.27;;
11121;SDS011;5615;49.304;10.576;2022-09-21T07:40:00;6.73;;;5.40;;
11121;SDS011;5615;49.304;10.576;2022-09-21T07:42:30;7.00;;;5.07;;
11121;SDS011;5615;49.304;10.576;2022-09-21T07:44:56;11.40;;;5.77;;
11121;SDS011;5615;49.304;10.576;2022-09-21T07:47:24;11.30;;;5.87;;
11121;SDS011;5615;49.304;10.576;2022-09-21T07:49:51;12.97;;;5.77;;
11121;SDS011;5615;49.304;10.576;2022-09-21T07:52:20;167.73;;;16.67;;
11121;SDS011;5615;49.304;10.576;2022-09-21T07:54:47;8.50;;;5.83;;
11121;SDS011;5615;49.304;10.576;2022-09-21T07:57:14;13.57;;;6.60;;
11121;SDS011;5615;49.304;10.576;2022-09-21T07:59:58;9.23;;;5.97;;
11121;SDS011;5615;49.304;10.576;2022-09-21T08:02:25;12.47;;;7.23;;
11121;SDS011;5615;49.304;10.576;2022-09-21T08:04:51;8.67;;;7.60;;
11121;SDS011;5615;49.304;10.576;2022-09-21T08:07:18;10.47;;;7.37;;
11121;SDS011;5615;49.304;10.576;2022-09-21T08:09:47;16.20;;;7.87;;
11121;SDS011;5615;49.304;10.576;2022-09-21T08:12:15;10.23;;;7.93;;
11121;SDS011;5615;49.304;10.576;2022-09-21T08:14:42;8.80;;;7.90;;
11121;SDS011;5615;49.304;10.576;2022-09-21T08:17:09;13.67;;;8.70;;
11121;SDS011;5615;49.304;10.576;2022-09-21T08:19:36;11.67;;;8.77;;
11121;SDS011;5615;49.304;10.576;2022-09-21T08:22:03;10.03;;;8.30;;
11121;SDS011;5615;49.304;10.576;2022-09-21T08:24:31;8.90;;;8.00;;
11121;SDS011;5615;49.304;10.576;2022-09-21T08:26:59;8.57;;;7.67;;
11121;SDS011;5615;49.304;10.576;2022-09-21T08:29:26;10.03;;;8.37;;
11121;SDS011;5615;49.304;10.576;2022-09-21T08:31:52;8.90;;;7.50;;
11121;SDS011;5615;49.304;10.576;2022-09-21T08:34:19;8.27;;;7.47;;
11121;SDS011;5615;49.304;10.576;2022-09-21T08:36:47;8.73;;;7.83;;
11121;SDS011;5615;49.304;10.576;2022-09-21T08:39:13;8.10;;;7.33;;
11121;SDS011;5615;49.304;10.576;2022-09-21T08:41:48;11.17;;;7.50;;
11121;SDS011;5615;49.304;10.576;2022-09-21T08:44:28;11.03;;;7.63;;
11121;SDS011;5615;49.304;10.576;2022-09-21T08:47:01;9.13;;;7.47;;
11121;SDS011;5615;49.304;10.576;2022-09-21T08:49:30;9.97;;;8.47;;
11121;SDS011;5615;49.304;10.576;2022-09-21T08:52:01;9.37;;;8.20;;
11121;SDS011;5615;49.304;10.576;2022-09-21T08:54:33;10.10;;;8.30;;
11121;SDS011;5615;49.304;10.576;2022-09-21T08:57:06;9.10;;;8.20;;
11121;SDS011;5615;49.304;10.576;2022-09-21T08:59:36;11.83;;;7.57;;
11121;SDS011;5615;49.304;10.576;2022-09-21T09:02:09;9.03;;;8.13;;
11121;SDS011;5615;49.304;10.576;2022-09-21T09:04:54;9.47;;;8.03;;
11121;SDS011;5615;49.304;10.576;2022-09-21T09:07:30;9.20;;;8.17;;
11121;SDS011;5615;49.304;10.576;2022-09-21T09:10:14;8.97;;;8.07;;
11121;SDS011;5615;49.304;10.576;2022-09-21T09:12:55;9.30;;;7.97;;
11121;SDS011;5615;49.304;10.576;2022-09-21T09:15:34;7.80;;;7.00;;
11121;SDS011;5615;49.304;10.576;2022-09-21T09:18:22;9.07;;;6.07;;
11121;SDS011;5615;49.304;10.576;2022-09-21T09:20:55;7.57;;;6.23;;
11121;SDS011;5615;49.304;10.576;2022-09-21T09:23:25;6.27;;;5.67;;
11121;SDS011;5615;49.304;10.576;2022-09-21T09:25:58;6.97;;;5.37;;
11121;SDS011;5615;49.304;10.576;2022-09-21T09:28:31;6.83;;;4.87;;
11121;SDS011;5615;49.304;10.576;2022-09-21T09:31:03;5.38;;;4.88;;
11121;SDS011;5615;49.304;10.576;2022-09-21T09:33:40;4.93;;;4.47;;
11121;SDS011;5615;49.304;10.576;2022-09-21T09:36:14;5.10;;;4.55;;
11121;SDS011;5615;49.304;10.576;2022-09-21T09:38:43;5.18;;;4.68;;
11121;SDS011;5615;49.304;10.576;2022-09-21T09:41:24;5.88;;;4.43;;
11121;SDS011;5615;49.304;10.576;2022-09-21T09:44:08;5.18;;;4.68;;
11121;SDS011;5615;49.304;10.576;2022-09-21T09:46:48;4.85;;;3.80;;
11121;SDS011;5615;49.304;10.576;2022-09-21T09:49:27;3.42;;;3.13;;
11121;SDS011;5615;49.304;10.576;2022-09-21T09:52:03;3.33;;;3.03;;
11121;SDS011;5615;49.304;10.576;2022-09-21T09:54:32;5.78;;;3.35;;
11121;SDS011;5615;49.304;10.576;2022-09-21T09:57:00;4.40;;;3.65;;
11121;SDS011;5615;49.304;10.576;2022-09-21T09:59:31;3.55;;;2.70;;
11121;SDS011;5615;49.304;10.576;2022-09-21T10:02:04;6.85;;;2.95;;
11121;SDS011;5615;49.304;10.576;2022-09-21T10:04:32;2.30;;;2.10;;
11121;SDS011;5615;49.304;10.576;2022-09-21T10:06:59;4.72;;;2.58;;
11121;SDS011;5615;49.304;10.576;2022-09-21T10:09:27;3.20;;;2.80;;
11121;SDS011;5615;49.304;10.576;2022-09-21T10:11:55;3.00;;;2.70;;
11121;SDS011;5615;49.304;10.576;2022-09-21T10:14:26;3.28;;;2.78;;
11121;SDS011;5615;49.304;10.576;2022-09-21T10:16:58;3.13;;;2.50;;
11121;SDS011;5615;49.304;10.576;2022-09-21T10:19:30;2.85;;;2.58;;
11121;SDS011;5615;49.304;10.576;2022-09-21T10:21:57;2.67;;;2.47;;
11121;SDS011;5615;49.304;10.576;2022-09-21T10:24:27;2.97;;;2.40;;
11121;SDS011;5615;49.304;10.576;2022-09-21T10:27:01;2.58;;;2.38;;
11121;SDS011;5615;49.304;10.576;2022-09-21T10:29:32;4.15;;;3.00;;
11121;SDS011;5615;49.304;10.576;2022-09-21T10:32:18;3.05;;;2.72;;
11121;SDS011;5615;49.304;10.576;2022-09-21T10:35:00;3.85;;;2.17;;
11121;SDS011;5615;49.304;10.576;2022-09-21T10:37:42;2.65;;;1.90;;
11121;SDS011;5615;49.304;10.576;2022-09-21T10:40:22;2.15;;;1.90;;
11121;SDS011;5615;49.304;10.576;2022-09-21T10:42:55;3.80;;;2.08;;
11121;SDS011;5615;49.304;10.576;2022-09-21T10:45:24;2.55;;;2.17;;
11121;SDS011;5615;49.304;10.576;2022-09-21T10:47:54;2.40;;;2.20;;
11121;SDS011;5615;49.304;10.576;2022-09-21T10:50:23;2.35;;;2.15;;
11121;SDS011;5615;49.304;10.576;2022-09-21T10:52:55;2.20;;;2.00;;
11121;SDS011;5615;49.304;10.576;2022-09-21T10:55:25;3.28;;;1.80;;
11121;SDS011;5615;49.304;10.576;2022-09-21T10:57:54;3.63;;;2.10;;
11121;SDS011;5615;49.304;10.576;2022-09-21T11:00:28;3.60;;;2.50;;
11121;SDS011;5615;49.304;10.576;2022-09-21T11:03:01;2.17;;;1.80;;
11121;SDS011;5615;49.304;10.576;2022-09-21T11:05:50;2.40;;;1.80;;
11121;SDS011;5615;49.304;10.576;2022-09-21T11:08:21;2.50;;;1.75;;
11121;SDS011;5615;49.304;10.576;2022-09-21T11:10:58;2.80;;;2.15;;
11121;SDS011;5615;49.304;10.576;2022-09-21T11:13:39;2.28;;;1.88;;
11121;SDS011;5615;49.304;10.576;2022-09-21T11:16:13;1.90;;;1.80;;
11121;SDS011;5615;49.304;10.576;2022-09-21T11:18:45;2.40;;;2.20;;
11121;SDS011;5615;49.304;10.576;2022-09-21T11:21:31;3.10;;;2.10;;
11121;SDS011;5615;49.304;10.576;2022-09-21T11:24:17;2.40;;;2.10;;
11121;SDS011;5615;49.304;10.576;2022-09-21T11:26:49;2.88;;;1.60;;
11121;SDS011;5615;49.304;10.576;2022-09-21T11:29:21;2.08;;;1.83;;
11121;SDS011;5615;49.304;10.576;2022-09-21T11:32:01;2.63;;;2.00;;
11121;SDS011;5615;49.304;10.576;2022-09-21T11:34:52;1.88;;;1.63;;
11121;SDS011;5615;49.304;10.576;2022-09-21T11:37:51;1.85;;;1.73;;
11121;SDS011;5615;49.304;10.576;2022-09-21T11:40:31;2.05;;;1.90;;
11121;SDS011;5615;49.304;10.576;2022-09-21T11:43:09;2.60;;;2.40;;
11121;SDS011;5615;49.304;10.576;2022-09-21T11:45:50;2.25;;;2.10;;
11121;SDS011;5615;49.304;10.576;2022-09-21T11:48:27;5.00;;;2.47;;
11121;SDS011;5615;49.304;10.576;2022-09-21T11:51:05;2.97;;;2.50;;
11121;SDS011;5615;49.304;10.576;2022-09-21T11:53:45;3.80;;;2.10;;
11121;SDS011;5615;49.304;10.576;2022-09-21T11:56:35;5.05;;;2.50;;
11121;SDS011;5615;49.304;10.576;2022-09-21T11:59:14;3.85;;;2.45;;
11121;SDS011;5615;49.304;10.576;2022-09-21T12:01:55;3.22;;;2.20;;
11121;SDS011;5615;49.304;10.576;2022-09-21T12:04:42;4.80;;;2.42;;
11121;SDS011;5615;49.304;10.576;2022-09-21T12:07:31;2.20;;;2.00;;
11121;SDS011;5615;49.304;10.576;2022-09-21T12:10:15;2.10;;;1.90;;
11121;SDS011;5615;49.304;10.576;2022-09-21T12:13:03;2.88;;;2.08;;
11121;SDS011;5615;49.304;10.576;2022-09-21T12:15:37;2.10;;;1.90;;
11121;SDS011;5615;49.304;10.576;2022-09-21T12:18:10;2.58;;;1.90;;
11121;SDS011;5615;49.304;10.576;2022-09-21T12:20:41;2.88;;;1.98;;
11121;SDS011;5615;49.304;10.576;2022-09-21T12:23:15;2.85;;;2.03;;
11121;SDS011;5615;49.304;10.576;2022-09-21T12:25:45;2.47;;;2.10;;
11121;SDS011;5615;49.304;10.576;2022-09-21T12:28:18;2.38;;;1.90;;
11121;SDS011;5615;49.304;10.576;2022-09-21T12:30:49;1.73;;;1.50;;
11121;SDS011;5615;49.304;10.576;2022-09-21T12:33:22;2.38;;;2.00;;
11121;SDS011;5615;49.304;10.576;2022-09-21T12:36:01;3.90;;;1.98;;
11121;SDS011;5615;49.304;10.576;2022-09-21T12:38:36;3.13;;;1.80;;
11121;SDS011;5615;49.304;10.576;2022-09-21T12:41:10;2.20;;;2.00;;
11121;SDS011;5615;49.304;10.576;2022-09-21T12:43:42;2.25;;;1.80;;
11121;SDS011;5615;49.304;10.576;2022-09-21T12:46:12;2.20;;;1.90;;
11121;SDS011;5615;49.304;10.576;2022-09-21T12:48:43;2.03;;;1.83;;
11121;SDS011;5615;49.304;10.576;2022-09-21T12:51:11;1.98;;;1.75;;
11121;SDS011;5615;49.304;10.576;2022-09-21T12:53:43;2.58;;;1.80;;
11121;SDS011;5615;49.304;10.576;2022-09-21T12:56:13;2.05;;;1.70;;
11121;SDS011;5615;49.304;10.576;2022-09-21T12:58:49;1.75;;;1.65;;
11121;SDS011;5615;49.304;10.576;2022-09-21T13:01:28;3.00;;;1.85;;
11121;SDS011;5615;49.304;10.576;2022-09-21T13:06:56;2.83;;;2.00;;
11121;SDS011;5615;49.304;10.576;2022-09-21T13:09:39;2.90;;;1.60;;
11121;SDS011;5615;49.304;10.576;2022-09-21T13:12:09;1.85;;;1.60;;
11121;SDS011;5615;49.304;10.576;2022-09-21T13:14:41;3.30;;;1.63;;
11121;SDS011;5615;49.304;10.576;2022-09-21T13:17:16;4.90;;;1.70;;
11121;SDS011;5615;49.304;10.576;2022-09-21T13:19:54;2.55;;;1.40;;
11121;SDS011;5615;49.304;10.576;2022-09-21T13:22:22;1.92;;;1.65;;
11121;SDS011;5615;49.304;10.576;2022-09-21T13:25:02;2.50;;;1.50;;
11121;SDS011;5615;49.304;10.576;2022-09-21T13:30:43;1.63;;;1.52;;
11121;SDS011;5615;49.304;10.576;2022-09-21T13:33:28;1.40;;;1.30;;
11121;SDS011;5615;49.304;10.576;2022-09-21T13:36:05;2.17;;;1.67;;
11121;SDS011;5615;49.304;10.576;2022-09-21T13:41:42;2.33;;;2.13;;
11121;SDS011;5615;49.304;10.576;2022-09-21T13:44:17;2.42;;;1.92;;
11121;SDS011;5615;49.304;10.576;2022-09-21T13:47:02;2.08;;;1.70;;
11121;SDS011;5615;49.304;10.576;2022-09-21T13:49:40;2.15;;;1.80;;
11121;SDS011;5615;49.304;10.576;2022-09-21T13:55:16;1.65;;;1.50;;
11121;SDS011;5615;49.304;10.576;2022-09-21T13:57:54;1.92;;;1.50;;
11121;SDS011;5615;49.304;10.576;2022-09-21T14:00:27;1.73;;;1.63;;
11121;SDS011;5615;49.304;10.576;2022-09-21T14:03:00;1.90;;;1.70;;
11121;SDS011;5615;49.304;10.576;2022-09-21T14:05:30;1.85;;;1.60;;
11121;SDS011;5615;49.304;10.576;2022-09-21T14:08:01;2.00;;;1.50;;
11121;SDS011;5615;49.304;10.576;2022-09-21T14:10:30;2.38;;;1.75;;
11121;SDS011;5615;49.304;10.576;2022-09-21T14:13:01;2.15;;;1.60;;
11121;SDS011;5615;49.304;10.576;2022-09-21T14:15:36;2.10;;;1.55;;
11121;SDS011;5615;49.304;10.576;2022-09-21T14:18:15;2.47;;;1.70;;
11121;SDS011;5615;49.304;10.576;2022-09-21T14:23:33;3.22;;;1.65;;
11121;SDS011;5615;49.304;10.576;2022-09-21T14:26:01;1.70;;;1.60;;
11121;SDS011;5615;49.304;10.576;2022-09-21T14:28:47;2.42;;;1.70;;
11121;SDS011;5615;49.304;10.576;2022-09-21T14:31:17;3.97;;;1.83;;
11121;SDS011;5615;49.304;10.576;2022-09-21T14:33:47;1.75;;;1.65;;
11121;SDS011;5615;49.304;10.576;2022-09-21T14:36:17;2.10;;;1.90;;
11121;SDS011;5615;49.304;10.576;2022-09-21T14:38:48;2.72;;;1.95;;
11121;SDS011;5615;49.304;10.576;2022-09-21T14:41:18;1.83;;;1.73;;
11121;SDS011;5615;49.304;10.576;2022-09-21T14:43:49;2.25;;;1.90;;
11121;SDS011;5615;49.304;10.576;2022-09-21T14:46:23;2.45;;;1.95;;
11121;SDS011;5615;49.304;10.576;2022-09-21T14:49:09;1.92;;;1.70;;
11121;SDS011;5615;49.304;10.576;2022-09-21T14:51:48;1.70;;;1.60;;
11121;SDS011;5615;49.304;10.576;2022-09-21T14:54:22;2.65;;;1.90;;
11121;SDS011;5615;49.304;10.576;2022-09-21T14:57:02;3.53;;;2.13;;
11121;SDS011;5615;49.304;10.576;2022-09-21T14:59:56;2.13;;;1.92;;
11121;SDS011;5615;49.304;10.576;2022-09-21T15:02:39;2.10;;;1.88;;
11121;SDS011;5615;49.304;10.576;2022-09-21T15:05:12;2.65;;;1.95;;
11121;SDS011;5615;49.304;10.576;2022-09-21T15:07:47;4.43;;;1.80;;
11121;SDS011;5615;49.304;10.576;2022-09-21T15:10:44;2.03;;;1.83;;
11121;SDS011;5615;49.304;10.576;2022-09-21T15:13:30;2.13;;;1.90;;
11121;SDS011;5615;49.304;10.576;2022-09-21T15:16:17;1.95;;;1.85;;
11121;SDS011;5615;49.304;10.576;2022-09-21T15:18:49;2.53;;;2.10;;
11121;SDS011;5615;49.304;10.576;2022-09-21T15:21:29;2.10;;;1.90;;
11121;SDS011;5615;49.304;10.576;2022-09-21T15:23:57;3.35;;;2.20;;
11121;SDS011;5615;49.304;10.576;2022-09-21T15:26:25;3.13;;;2.22;;